Portada
METAR-TAF:

METAR-TAF

Aeroports :

Xi'an, Xina

latitud: 34-26N, longitud: 108-45E, altitud: 479 m

Observació

L'informe es va fer fa 38 minuts, a les 02:00 UTC
Vent 2 kt amb direcció variable
Temperatura 15°C
Humitat 44%
Pressió 1020 hPa
Visibilitat 10 km o més
Cel ennuvolat a una alçada de 7000 ft

METAR: ZLXY 010200Z VRB01MPS 9999 BKN070 15/03 Q1020 NOSIG

Hora: 10:38 (02:38 UTC)

Pronòstic

L'informe es va fer fa 5 hores i 28 minuts, a les 21:10 UTC
Pronòstic vàlid del 01 a les 00 UTC al 01 a les 24 UTC
Vent 8 kt del Est/Nord-Est amb ràfegues de 19 kt
Visibilitat: 3000 m
calitja
Evolucionant progressivament
l' 01 a les 11 UTC al 01 a les 12 UTC
pluja, boirina

TAF: ZLXY 312110Z 0100/0124 06004G10MPS 3000 HZ NSC TX17/0108Z TN07/0122Z BECMG 0111/0112 -RA BR

Observacions i pronòstics meteorològics de més de 4000 aeroports (METAR i TAF).

Les estacions disponibles són els punts grocs i vermells al mapa.

Posi el ratolí al punt desitjat per veure el nom de l'estació.

Feu clic per veure les observacions i els pronòstics meteorològics.

Per canviar el mapa: feu clic els botons verds amb una creu de color negre per apropar; al botó verd amb un guió per allunyar la imatge; o en les fletxes verdes per a mapes adjacents.


METAR-TAF: